Carp, Minnesota
Current Conditions -  °F | °C
As of 6:53 AM on Monday 22 Dec 2014 (Local Time) from KBDE Reporting Station
Overcast Overcast  
Wind Chill: 25°   Ceiling: 500
Heat Index: 33°   Visibility: 9mi
Dew Point: 32°   Wind: 10mph
Humidity: 96%   Direction: 110°ESE
Pressure: 29.61"   Gusts: NA
Location:  48.5595°N, 94.661°W
Report Text: KBDE 221253Z AUTO 11009KT 9SM OVC005 01/00 A2961 RMK AO2 SLP042 T00060000 TSNO
Loading
Personal Weather Stations






























Interactive Weather Map New forecast layout! Learn more

10-Day Weather Forecast

Advertisements
Track Severe Weather on mobile